.
WxDataArchive / Data Records for 2008-08-11
2008-08-10 August 2008 2008-08-12

Data Records for Monday, 11 August 2008

Time	Temp	Chill	HIndex	Humid	Dewpt	 Wind 	HiWind	WindDir	Rain 	Barom 
-----	----	-----	------	-----	-----	------	------	-------	-----	----- 
00:00	59.9	59.9	59.9	81	54.1	0	0	---	0.00	29.934 
00:05	59.8	59.8	59.8	82	54.3	0	0	---	0.00	29.931 
00:10	59.6	59.6	59.6	82	54.1	0	0	---	0.00	29.931 
00:15	59.5	59.5	59.5	83	54.3	0	0	---	0.00	29.932 
00:20	59.3	59.3	59.3	83	54.1	0	0	---	0.00	29.931 
00:25	59.2	59.2	59.2	84	54.4	0	0	---	0.00	29.933 
00:30	59.2	59.2	59.2	84	54.4	0	0	---	0.00	29.937 
00:35	59.0	59.0	59.0	85	54.5	0	0	---	0.00	29.936 
00:40	59.0	59.0	59.0	85	54.5	0	0	---	0.00	29.936 
00:45	58.9	58.9	58.9	85	54.4	0	0	---	0.00	29.934 
00:50	58.7	58.7	58.7	85	54.2	0	0	---	0.00	29.933 
00:55	58.7	58.7	58.7	86	54.5	0	0	---	0.00	29.932 
01:00	58.6	58.6	58.6	86	54.4	0	0	---	0.00	29.932 
01:05	58.6	58.6	58.6	86	54.4	0	0	---	0.00	29.930 
01:10	58.4	58.4	58.4	87	54.5	0	0	---	0.00	29.931 
01:15	58.4	58.4	58.4	87	54.5	0	0	---	0.00	29.931 
01:20	58.3	58.3	58.3	87	54.4	0	0	---	0.00	29.931 
01:25	58.3	58.3	58.3	87	54.4	0	0	---	0.00	29.932 
01:30	58.3	58.3	58.3	87	54.4	0	0	---	0.00	29.932 
01:35	58.3	58.3	58.3	88	54.8	0	0	---	0.00	29.932 
01:40	58.3	58.3	58.3	88	54.8	0	0	---	0.00	29.933 
01:45	58.3	58.3	58.3	88	54.8	0	0	---	0.00	29.934 
01:50	58.3	58.3	58.3	88	54.8	0	0	---	0.00	29.933 
01:55	58.1	58.1	58.1	88	54.6	0	0	---	0.00	29.934 
02:00	58.1	58.1	58.1	88	54.6	0	0	---	0.00	29.934 
02:05	58.1	58.1	58.1	88	54.6	0	0	---	0.00	29.931 
02:10	58.0	58.0	58.0	88	54.5	0	0	---	0.00	29.930 
02:15	58.0	58.0	58.0	88	54.5	0	0	---	0.00	29.930 
02:20	58.0	58.0	58.0	88	54.5	0	0	---	0.00	29.929 
02:25	58.0	58.0	58.0	88	54.5	0	0	---	0.00	29.930 
02:30	58.0	58.0	58.0	88	54.5	0	0	---	0.00	29.930 
02:35	58.0	58.0	58.0	88	54.5	0	0	---	0.00	29.930 
02:40	58.0	58.0	58.0	88	54.5	0	0	---	0.00	29.931 
02:45	58.0	58.0	58.0	88	54.5	0	0	---	0.00	29.932 
02:50	58.0	58.0	58.0	88	54.5	0	0	---	0.00	29.934 
02:55	57.8	57.8	57.8	88	54.3	0	0	---	0.00	29.937 
03:00	57.8	57.8	57.8	88	54.3	0	0	---	0.00	29.939 
03:05	57.6	57.6	57.6	88	54.1	0	0	---	0.00	29.941 
03:10	57.6	57.6	57.6	88	54.1	0	0	---	0.00	29.941 
03:15	57.5	57.5	57.5	88	54.0	0	0	---	0.00	29.942 
03:20	57.5	57.5	57.5	88	54.0	0	0	---	0.00	29.941 
03:25	57.3	57.3	57.3	88	53.8	0	0	---	0.00	29.941 
03:30	57.2	57.2	57.2	89	54.0	0	0	---	0.00	29.942 
03:35	57.0	57.0	57.0	89	53.8	0	0	---	0.00	29.944 
03:40	56.7	56.7	56.7	89	53.5	0	0	---	0.00	29.943 
03:45	56.6	56.6	56.6	89	53.4	0	0	---	0.00	29.944 
03:50	56.5	56.5	56.5	89	53.3	0	0	---	0.00	29.944 
03:55	56.3	56.3	56.3	90	53.4	0	0	---	0.00	29.946 
04:00	56.2	56.2	56.2	91	53.6	0	1	292	0.00	29.949 
04:05	56.2	56.2	56.2	91	53.6	0	1	292	0.00	29.951 
04:10	56.2	56.2	56.2	91	53.6	0	0	---	0.00	29.955 
04:15	56.2	56.2	56.2	92	53.9	0	0	---	0.00	29.951 
04:20	56.0	56.0	56.0	92	53.7	0	0	---	0.00	29.951 
04:25	56.0	56.0	56.0	92	53.7	0	0	---	0.00	29.951 
04:30	56.0	56.0	56.0	92	53.7	0	0	---	0.00	29.949 
04:35	56.0	56.0	56.0	92	53.7	0	0	---	0.00	29.948 
04:40	55.9	55.9	55.9	92	53.6	0	0	---	0.00	29.949 
04:45	55.9	55.9	55.9	92	53.6	0	0	---	0.00	29.952 
04:50	55.7	55.7	55.7	92	53.4	0	0	---	0.00	29.952 
04:55	55.7	55.7	55.7	92	53.4	0	0	---	0.00	29.950 
05:00	55.7	55.7	55.7	92	53.4	0	0	---	0.00	29.950 
05:05	55.7	55.7	55.7	92	53.4	0	0	---	0.00	29.952 
05:10	55.7	55.7	55.7	92	53.4	0	0	---	0.00	29.956 
05:15	55.7	55.7	55.7	92	53.4	0	0	---	0.00	29.961 
05:20	55.6	55.6	55.6	93	53.6	0	1	292	0.00	29.962 
05:25	55.6	55.6	55.6	93	53.6	0	0	---	0.00	29.963 
05:30	55.6	55.6	55.6	93	53.6	0	0	---	0.00	29.963 
05:35	55.4	55.4	55.4	93	53.4	0	0	---	0.00	29.965 
05:40	55.4	55.4	55.4	93	53.4	0	0	---	0.00	29.965 
05:45	55.4	55.4	55.4	93	53.4	0	1	292	0.00	29.966 
05:50	55.4	55.4	55.4	93	53.4	0	0	---	0.00	29.966 
05:55	55.4	55.4	55.4	93	53.4	0	0	---	0.00	29.966 
06:00	55.3	55.3	55.3	93	53.3	0	0	---	0.00	29.967 
06:05	55.3	55.3	55.3	93	53.3	0	0	---	0.00	29.968 
06:10	55.1	55.1	55.1	93	53.1	0	0	---	0.00	29.968 
06:15	55.1	55.1	55.1	93	53.1	0	0	---	0.00	29.967 
06:20	55.3	55.3	55.3	93	53.3	0	0	---	0.00	29.967 
06:25	55.4	55.4	55.4	93	53.4	0	0	---	0.00	29.969 
06:30	55.4	55.4	55.4	93	53.4	0	0	---	0.00	29.969 
06:35	55.6	55.6	55.6	94	53.9	0	0	---	0.00	29.967 
06:40	55.9	55.9	55.9	94	54.2	0	0	---	0.00	29.969 
06:45	56.2	56.2	56.2	93	54.2	0	0	---	0.00	29.969 
06:50	56.6	56.6	56.6	93	54.6	0	0	---	0.00	29.970 
06:55	57.0	57.0	57.0	92	54.7	0	0	---	0.00	29.967 
07:00	57.5	57.5	57.5	92	55.2	0	0	---	0.00	29.966 
07:05	57.8	57.8	57.8	91	55.2	0	0	---	0.00	29.967 
07:10	58.3	58.3	58.3	90	55.4	0	1	292	0.00	29.966 
07:15	58.7	58.7	58.7	90	55.8	0	1	292	0.00	29.967 
07:20	59.2	59.2	59.2	89	56.0	0	0	---	0.00	29.967 
07:25	59.5	59.5	59.5	87	55.6	0	1	292	0.00	29.965 
07:30	59.9	59.9	59.9	87	56.0	0	2	292	0.00	29.966 
07:35	60.4	60.4	60.4	86	56.2	0	2	292	0.00	29.966 
07:40	60.9	60.9	60.9	85	56.4	0	2	292	0.00	29.966 
07:45	61.5	61.5	61.5	84	56.6	0	1	292	0.00	29.967 
07:50	62.0	62.0	62.0	83	56.8	0	1	292	0.00	29.966 
07:55	62.7	62.7	62.7	81	56.8	0	2	292	0.00	29.965 
08:00	63.4	63.4	63.4	80	57.1	0	2	292	0.00	29.964 
08:05	63.9	63.9	63.9	78	56.9	1	4	112	0.00	29.966 
08:10	64.5	64.5	64.5	79	57.8	0	4	90	0.00	29.972 
08:15	65.0	65.0	65.0	78	58.0	0	5	112	0.00	29.974 
08:20	65.6	65.6	65.6	76	57.8	1	4	135	0.00	29.974 
08:25	66.1	66.1	66.1	75	57.9	1	3	112	0.00	29.976 
08:30	66.4	66.4	66.4	74	57.9	0	3	112	0.00	29.978 
08:35	66.8	66.8	66.8	73	57.9	1	3	112	0.00	29.978 
08:40	67.1	67.1	67.1	73	58.1	1	3	112	0.00	29.978 
08:45	67.1	67.1	67.1	73	58.1	0	2	90	0.00	29.977 
08:50	67.6	67.6	67.6	73	58.6	1	5	90	0.00	29.977 
08:55	67.9	67.9	67.9	69	57.3	2	4	112	0.00	29.976 
09:00	68.1	68.1	68.1	71	58.3	1	4	112	0.00	29.974 
09:05	68.3	68.3	68.3	71	58.5	0	2	112	0.00	29.976 
09:10	68.6	68.6	68.6	70	58.4	1	4	135	0.00	29.974 
09:15	68.9	68.9	68.9	69	58.3	0	3	202	0.00	29.975 
09:20	68.8	68.8	68.8	69	58.2	1	2	202	0.00	29.977 
09:25	68.9	68.9	68.9	68	57.9	1	2	0	0.00	29.976 
09:30	69.4	69.4	69.4	68	58.4	1	4	68	0.00	29.977 
09:35	70.1	70.1	70.1	67	58.6	1	3	112	0.00	29.975 
09:40	70.6	70.6	70.6	63	57.4	1	5	112	0.00	29.976 
09:45	70.8	70.8	70.8	64	58.0	1	6	90	0.00	29.976 
09:50	70.9	70.9	70.9	64	58.1	1	4	90	0.00	29.977 
09:55	71.3	71.3	71.3	64	58.5	1	4	90	0.00	29.976 
10:00	71.5	71.5	71.5	59	56.4	2	6	112	0.00	29.975 
10:05	71.8	71.8	71.8	61	57.6	1	4	135	0.00	29.977 
10:10	72.0	72.0	72.0	60	57.3	1	3	135	0.00	29.981 
10:15	72.1	72.1	72.1	62	58.3	2	5	112	0.00	29.981 
10:20	72.3	72.3	72.3	58	56.7	2	5	90	0.00	29.980 
10:25	72.1	72.1	72.1	58	56.5	1	3	90	0.00	29.979 
10:30	72.5	72.5	72.5	57	56.4	1	4	135	0.00	29.979 
10:35	73.0	73.0	73.0	58	57.3	1	3	135	0.00	29.979 
10:40	73.0	73.0	73.0	55	55.9	2	4	112	0.00	29.978 
10:45	72.7	72.7	72.7	54	55.1	2	4	112	0.00	29.980 
10:50	72.5	72.5	72.5	54	54.9	2	9	112	0.00	29.980 
10:55	72.8	72.8	72.8	55	55.7	1	4	112	0.00	29.979 
11:00	73.2	73.2	73.2	54	55.5	2	5	112	0.00	29.980 
11:05	73.2	73.2	73.2	52	54.5	2	5	90	0.00	29.981 
11:10	72.8	72.8	72.8	53	54.7	0	3	90	0.00	29.983 
11:15	72.7	72.7	72.7	54	55.1	1	3	112	0.00	29.981 
11:20	73.3	73.3	73.3	54	55.6	0	2	112	0.00	29.983 
11:25	74.4	74.4	74.4	55	57.2	1	4	112	0.00	29.978 
11:30	74.7	74.7	74.7	48	53.7	2	5	112	0.00	29.976 
11:35	74.4	74.4	74.4	50	54.5	1	6	90	0.00	29.977 
11:40	74.4	74.4	74.4	50	54.5	1	6	112	0.00	29.976 
11:45	74.6	74.6	74.6	46	52.4	1	4	112	0.00	29.976 
11:50	75.1	75.1	77.7	50	55.2	2	6	112	0.00	29.976 
11:55	75.1	75.1	77.7	50	55.2	0	3	135	0.00	29.975 
12:00	74.7	74.7	74.7	49	54.3	0	1	135	0.00	29.975 
12:05	74.2	74.2	74.2	50	54.3	0	2	135	0.00	29.977 
12:10	74.2	74.2	74.2	48	53.2	0	3	135	0.00	29.977 
12:15	74.4	74.4	74.4	46	52.3	1	3	135	0.00	29.976 
12:20	75.3	75.3	77.7	53	57.0	0	2	135	0.00	29.974 
12:25	76.1	76.1	78.1	50	56.1	1	3	90	0.00	29.974 
12:30	76.3	76.3	78.1	45	53.4	0	3	90	0.00	29.973 
12:35	75.8	75.8	78.0	49	55.3	0	3	45	0.00	29.975 
12:40	75.6	75.6	77.9	47	53.9	0	2	45	0.00	29.975 
12:45	76.1	76.1	78.0	43	52.0	1	3	45	0.00	29.973 
12:50	76.3	76.3	78.2	48	55.1	0	3	292	0.00	29.973 
12:55	76.5	76.5	78.2	44	52.9	0	2	315	0.00	29.971 
13:00	76.8	76.8	78.3	45	53.8	1	4	0	0.00	29.970 
13:05	77.2	77.2	78.7	49	56.5	1	4	112	0.00	29.972 
13:10	77.0	77.0	78.2	40	50.8	2	5	90	0.00	29.968 
13:15	77.2	77.2	78.3	40	51.0	1	5	90	0.00	29.964 
13:20	76.8	76.8	78.2	41	51.3	2	4	90	0.00	29.963 
13:25	77.2	77.2	78.6	46	54.8	0	3	90	0.00	29.962 
13:30	77.4	77.4	78.6	43	53.1	0	3	0	0.00	29.962 
13:35	77.4	77.4	78.7	47	55.6	1	3	270	0.00	29.962 
13:40	77.7	77.7	78.6	40	51.4	1	3	270	0.00	29.959 
13:45	77.6	77.6	78.7	43	53.3	2	5	90	0.00	29.959 
13:50	76.8	76.8	78.2	42	51.9	0	1	90	0.00	29.961 
13:55	75.8	75.8	77.8	42	51.1	0	2	90	0.00	29.962 
14:00	75.6	75.6	77.8	46	53.3	0	3	90	0.00	29.961 
14:05	76.5	76.5	78.2	44	52.9	0	3	90	0.00	29.960 
14:10	77.4	77.4	78.7	46	55.0	0	3	112	0.00	29.960 
14:15	77.7	77.7	78.8	44	54.0	1	4	112	0.00	29.959 
14:20	77.7	77.7	78.7	42	52.8	0	2	135	0.00	29.958 
14:25	77.9	77.9	78.8	42	52.9	0	1	22	0.00	29.959 
14:30	78.1	78.1	78.8	40	51.8	1	4	22	0.00	29.956 
14:35	78.1	78.1	78.9	43	53.8	0	2	112	0.00	29.956 
14:40	77.6	77.6	78.7	43	53.3	0	2	90	0.00	29.956 
14:45	77.9	77.9	78.8	43	53.6	0	2	90	0.00	29.952 
14:50	78.3	78.3	78.9	40	52.0	0	2	68	0.00	29.952 
14:55	78.1	78.1	78.9	43	53.8	1	2	0	0.00	29.951 
15:00	77.9	77.9	78.7	40	51.6	0	2	0	0.00	29.946 
15:05	78.1	78.1	78.8	40	51.8	0	2	0	0.00	29.948 
15:10	78.6	78.6	79.0	39	51.5	1	3	270	0.00	29.944 
15:15	77.9	77.9	78.7	41	52.3	0	2	292	0.00	29.945 
15:20	77.4	77.4	78.6	43	53.1	0	1	292	0.00	29.944 
15:25	76.7	76.7	78.2	43	52.5	0	2	292	0.00	29.946 
15:30	76.3	76.3	78.0	43	52.1	1	2	0	0.00	29.946 
15:35	76.7	76.7	78.3	44	53.1	1	3	338	0.00	29.946 
15:40	77.6	77.6	78.8	45	54.6	0	2	315	0.00	29.947 
15:45	78.3	78.3	79.1	43	53.9	0	2	315	0.00	29.945 
15:50	78.1	78.1	78.8	41	52.5	0	2	315	0.00	29.944 
15:55	77.9	77.9	78.8	43	53.6	0	2	315	0.00	29.944 
16:00	78.1	78.1	78.9	43	53.8	0	2	292	0.00	29.944 
16:05	78.1	78.1	79.0	45	55.0	0	1	292	0.00	29.943 
16:10	78.5	78.5	79.1	41	52.8	0	1	292	0.00	29.941 
16:15	78.3	78.3	78.9	41	52.6	0	2	292	0.00	29.941 
16:20	77.7	77.7	78.6	41	52.1	0	2	292	0.00	29.940 
16:25	77.2	77.2	78.5	43	52.9	0	1	292	0.00	29.940 
16:30	76.7	76.7	78.2	43	52.5	0	1	292	0.00	29.938 
16:35	76.3	76.3	78.1	45	53.4	0	1	292	0.00	29.937 
16:40	76.5	76.5	78.2	45	53.6	0	1	292	0.00	29.935 
16:45	76.7	76.7	78.2	43	52.5	0	2	292	0.00	29.933 
16:50	76.7	76.7	78.3	44	53.1	0	2	292	0.00	29.931 
16:55	76.1	76.1	78.0	44	52.6	0	1	292	0.00	29.930 
17:00	75.8	75.8	77.9	44	52.3	0	0	---	0.00	29.930 
17:05	75.6	75.6	77.8	44	52.1	0	1	292	0.00	29.931 
17:10	75.6	75.6	77.8	45	52.7	0	0	---	0.00	29.930 
17:15	75.6	75.6	77.8	43	51.5	0	1	292	0.00	29.931 
17:20	75.8	75.8	77.9	46	53.5	0	1	292	0.00	29.930 
17:25	75.8	75.8	77.9	45	52.9	0	0	---	0.00	29.929 
17:30	76.0	76.0	78.0	44	52.5	0	0	---	0.00	29.929 
17:35	76.1	76.1	78.0	46	53.8	0	1	292	0.00	29.929 
17:40	76.3	76.3	78.1	44	52.8	0	2	292	0.00	29.926 
17:45	76.3	76.3	78.1	45	53.4	0	1	292	0.00	29.923 
17:50	76.3	76.3	78.1	46	54.0	0	0	---	0.00	29.923 
17:55	76.3	76.3	78.2	47	54.6	0	1	292	0.00	29.923 
18:00	76.1	76.1	78.0	46	53.8	0	1	292	0.00	29.922 
18:05	76.0	76.0	78.0	46	53.7	0	1	292	0.00	29.919 
18:10	75.8	75.8	77.9	46	53.5	0	1	292	0.00	29.920 
18:15	75.6	75.6	77.8	46	53.3	0	1	292	0.00	29.921 
18:20	75.3	75.3	77.7	49	54.8	0	0	---	0.00	29.920 
18:25	75.1	75.1	77.7	48	54.1	0	1	292	0.00	29.917 
18:30	75.1	75.1	77.7	49	54.6	0	0	---	0.00	29.916 
18:35	75.1	75.1	77.7	49	54.6	0	1	292	0.00	29.916 
18:40	74.9	74.9	74.9	50	55.0	0	0	---	0.00	29.915 
18:45	74.9	74.9	74.9	49	54.4	0	1	292	0.00	29.914 
18:50	74.9	74.9	74.9	50	55.0	0	0	---	0.00	29.914 
18:55	74.6	74.6	74.6	51	55.3	0	0	---	0.00	29.914 
19:00	74.4	74.4	74.4	51	55.1	0	1	292	0.00	29.914 
19:05	74.2	74.2	74.2	52	55.4	0	0	---	0.00	29.910 
19:10	73.9	73.9	73.9	53	55.7	0	0	---	0.00	29.910 
19:15	73.7	73.7	73.7	54	56.0	0	0	---	0.00	29.909 
19:20	73.3	73.3	73.3	54	55.6	0	0	---	0.00	29.909 
19:25	73.2	73.2	73.2	54	55.5	0	0	---	0.00	29.909 
19:30	72.8	72.8	72.8	55	55.7	0	0	---	0.00	29.909 
19:35	72.3	72.3	72.3	55	55.2	0	0	---	0.00	29.910 
19:40	72.0	72.0	72.0	55	54.9	0	0	---	0.00	29.911 
19:45	71.6	71.6	71.6	57	55.5	0	0	---	0.00	29.909 
19:50	70.9	70.9	70.9	58	55.4	0	0	---	0.00	29.909 
19:55	70.4	70.4	70.4	60	55.8	0	0	---	0.00	29.909 
20:00	69.9	69.9	69.9	62	56.3	0	0	---	0.00	29.910 
20:05	69.6	69.6	69.6	63	56.4	0	0	---	0.00	29.906 
20:10	69.1	69.1	69.1	64	56.4	0	0	---	0.00	29.907 
20:15	68.6	68.6	68.6	65	56.4	0	0	---	0.00	29.909 
20:20	68.3	68.3	68.3	66	56.5	0	0	---	0.00	29.909 
20:25	67.9	67.9	67.9	67	56.5	0	0	---	0.00	29.909 
20:30	67.6	67.6	67.6	67	56.2	0	0	---	0.00	29.910 
20:35	67.3	67.3	67.3	68	56.4	0	0	---	0.00	29.912 
20:40	66.9	66.9	66.9	69	56.4	0	0	---	0.00	29.912 
20:45	66.6	66.6	66.6	70	56.5	0	0	---	0.00	29.912 
20:50	66.3	66.3	66.3	71	56.6	0	0	---	0.00	29.912 
20:55	66.1	66.1	66.1	72	56.8	0	0	---	0.00	29.913 
21:00	65.8	65.8	65.8	72	56.5	0	0	---	0.00	29.913 
21:05	65.6	65.6	65.6	73	56.7	0	0	---	0.00	29.909 
21:10	65.5	65.5	65.5	73	56.6	0	0	---	0.00	29.909 
21:15	65.3	65.3	65.3	74	56.8	0	0	---	0.00	29.911 
21:20	65.3	65.3	65.3	74	56.8	0	0	---	0.00	29.910 
21:25	65.2	65.2	65.2	75	57.1	0	0	---	0.00	29.909 
21:30	65.0	65.0	65.0	76	57.2	0	0	---	0.00	29.909 
21:35	65.0	65.0	65.0	76	57.2	0	0	---	0.00	29.909 
21:40	64.7	64.7	64.7	77	57.3	0	0	---	0.00	29.909 
21:45	64.5	64.5	64.5	77	57.1	0	0	---	0.00	29.908 
21:50	64.3	64.3	64.3	77	56.9	0	0	---	0.00	29.906 
21:55	64.2	64.2	64.2	78	57.2	0	0	---	0.00	29.908 
22:00	64.0	64.0	64.0	79	57.4	0	0	---	0.00	29.906 
22:05	63.9	63.9	63.9	79	57.3	0	0	---	0.00	29.905 
22:10	63.9	63.9	63.9	79	57.3	0	0	---	0.00	29.903 
22:15	63.7	63.7	63.7	79	57.1	0	0	---	0.00	29.903 
22:20	63.7	63.7	63.7	79	57.1	0	0	---	0.00	29.906 
22:25	63.5	63.5	63.5	79	56.9	0	0	---	0.00	29.906 
22:30	63.4	63.4	63.4	79	56.8	0	0	---	0.00	29.907 
22:35	63.2	63.2	63.2	79	56.6	0	0	---	0.00	29.909 
22:40	63.1	63.1	63.1	80	56.8	0	0	---	0.00	29.908 
22:45	63.1	63.1	63.1	80	56.8	0	0	---	0.00	29.908 
22:50	63.1	63.1	63.1	81	57.2	0	0	---	0.00	29.908 
22:55	62.9	62.9	62.9	81	57.0	0	0	---	0.00	29.906 
23:00	62.9	62.9	62.9	81	57.0	0	0	---	0.00	29.907 
23:05	62.9	62.9	62.9	81	57.0	0	0	---	0.00	29.905 
23:10	62.9	62.9	62.9	81	57.0	0	0	---	0.00	29.907 
23:15	62.9	62.9	62.9	81	57.0	0	0	---	0.00	29.909 
23:20	62.7	62.7	62.7	82	57.1	0	0	---	0.00	29.909 
23:25	62.7	62.7	62.7	82	57.1	0	0	---	0.00	29.909 
23:30	62.6	62.6	62.6	82	57.0	0	0	---	0.00	29.908 
23:35	62.4	62.4	62.4	82	56.8	0	0	---	0.00	29.908 
23:40	62.3	62.3	62.3	83	57.1	0	0	---	0.00	29.910 
23:45	62.1	62.1	62.1	83	56.9	0	0	---	0.00	29.910 
23:50	62.1	62.1	62.1	84	57.2	0	0	---	0.00	29.910 
23:55	62.0	62.0	62.0	84	57.1	0	0	---	0.00	29.911 

CoCoRaHS
IN-AL-39
A2 Web Hosting
Creative Commons License
GoDaddy
Look for:

loaded 2017-12-13 15:37:05 • last modified 2010-11-18 10:43:29
Privacy PolicyDisclaimer
• wx.awcolley.com is powered by PmWiki v.2002016 •
• all content (unless otherwise noted) © 2017 A W Colley